Time;durP1;ratioP1;P1;durP2;ratioP2;P2;SDS_P1;SDS_P2;PMS_P1;PMS_P2;Temp;Humidity;BMP_temperature;BMP_pressure;BME280_temperature;BME280_humidity;BME280_pressure;Samples;Min_cycle;Max_cycle;Signal;HPM_P1;HPM_P2
2022/09/01 00:01:56;;;;;;;1.65;1.10;;;;;;;;;;4998131;28;20049;-63
2022/09/01 00:04:25;;;;;;;2.08;1.20;;;;;;;;;;5000090;28;20116;-62
2022/09/01 00:06:53;;;;;;;2.00;1.35;;;;;;;;;;4979689;28;20080;-62
2022/09/01 00:09:21;;;;;;;1.83;1.08;;;;;;;;;;4985210;28;20037;-62
2022/09/01 00:11:51;;;;;;;3.50;1.30;;;;;;;;;;5000909;28;20412;-62
2022/09/01 00:14:19;;;;;;;8.18;1.50;;;;;;;;;;4999269;28;20042;-62
2022/09/01 00:16:46;;;;;;;2.88;1.10;;;;;;;;;;5000432;28;20119;-63
2022/09/01 00:19:11;;;;;;;3.20;1.30;;;;;;;;;;5000162;28;20053;-62
2022/09/01 00:21:40;;;;;;;1.65;1.15;;;;;;;;;;5001170;28;20156;-63
2022/09/01 00:24:07;;;;;;;1.52;1.20;;;;;;;;;;5000190;28;20030;-62
2022/09/01 00:26:33;;;;;;;1.95;1.10;;;;;;;;;;5001591;28;20041;-62
2022/09/01 00:28:58;;;;;;;2.08;1.35;;;;;;;;;;4999048;28;20069;-63
2022/09/01 00:31:24;;;;;;;3.13;1.35;;;;;;;;;;4999342;28;20455;-62
2022/09/01 00:33:51;;;;;;;3.53;1.50;;;;;;;;;;4999811;28;20129;-62
2022/09/01 00:36:18;;;;;;;4.82;2.30;;;;;;;;;;5000071;28;20029;-62
2022/09/01 00:38:43;;;;;;;2.17;1.30;;;;;;;;;;5004817;28;20033;-62
2022/09/01 00:41:09;;;;;;;1.42;1.25;;;;;;;;;;5001977;28;20053;-64
2022/09/01 00:43:43;;;;;;;4.43;1.30;;;;;;;;;;5003949;28;20042;-64
2022/09/01 00:46:21;;;;;;;1.55;1.08;;;;;;;;;;4998097;28;20045;-64
2022/09/01 00:48:52;;;;;;;2.05;1.30;;;;;;;;;;5001192;28;20046;-64
2022/09/01 00:51:17;;;;;;;1.33;1.20;;;;;;;;;;4997266;28;20092;-63
2022/09/01 00:53:44;;;;;;;1.58;1.15;;;;;;;;;;5003843;28;20050;-64
2022/09/01 00:56:12;;;;;;;3.13;1.25;;;;;;;;;;4999709;28;20200;-63
2022/09/01 00:58:38;;;;;;;3.20;1.17;;;;;;;;;;5003565;28;20058;-64
2022/09/01 01:01:06;;;;;;;2.83;1.30;;;;;;;;;;4999673;28;20054;-63
2022/09/01 01:03:31;;;;;;;4.05;1.23;;;;;;;;;;5002455;28;20132;-63
2022/09/01 01:06:02;;;;;;;1.60;1.25;;;;;;;;;;4999991;28;20070;-63
2022/09/01 01:08:32;;;;;;;4.60;1.20;;;;;;;;;;5001420;28;20050;-62
2022/09/01 01:10:59;;;;;;;1.65;1.33;;;;;;;;;;4998774;28;20050;-63
2022/09/01 01:13:26;;;;;;;1.38;1.02;;;;;;;;;;4998989;28;20100;-62
2022/09/01 01:15:51;;;;;;;3.72;1.23;;;;;;;;;;5000324;28;20046;-64
2022/09/01 01:18:17;;;;;;;4.95;1.17;;;;;;;;;;4998413;28;20033;-62
2022/09/01 01:23:40;;;;;;;1.08;0.98;;;;;;;;;;4999977;28;20479;-61
2022/09/01 01:26:09;;;;;;;3.63;0.93;;;;;;;;;;4998217;28;20073;-62
2022/09/01 01:28:38;;;;;;;3.28;1.00;;;;;;;;;;4996727;28;20144;-62
2022/09/01 01:31:17;;;;;;;1.90;1.15;;;;;;;;;;4998591;28;20536;-61
2022/09/01 01:33:48;;;;;;;1.17;0.95;;;;;;;;;;5000889;28;20451;-62
2022/09/01 01:36:32;;;;;;;1.63;1.10;;;;;;;;;;4996641;28;20026;-62
2022/09/01 01:39:07;;;;;;;1.42;1.10;;;;;;;;;;4999623;28;20022;-62
2022/09/01 01:41:34;;;;;;;1.10;1.00;;;;;;;;;;4996054;28;20072;-63
2022/09/01 01:44:03;;;;;;;2.83;1.30;;;;;;;;;;4997175;28;20161;-62
2022/09/01 01:46:29;;;;;;;1.10;1.00;;;;;;;;;;4998582;28;20056;-62
2022/09/01 01:48:55;;;;;;;2.38;1.13;;;;;;;;;;4996943;28;20432;-62
2022/09/01 01:51:23;;;;;;;1.90;1.00;;;;;;;;;;4983745;28;20043;-62
2022/09/01 01:53:51;;;;;;;1.67;1.20;;;;;;;;;;5000664;28;20611;-62
2022/09/01 01:56:18;;;;;;;1.77;1.08;;;;;;;;;;4998356;28;20073;-62
2022/09/01 01:58:44;;;;;;;2.83;1.05;;;;;;;;;;4986725;28;20050;-62
2022/09/01 02:01:11;;;;;;;4.32;1.10;;;;;;;;;;4996063;28;20112;-63
2022/09/01 02:03:37;;;;;;;5.25;1.20;;;;;;;;;;4994290;28;20073;-62
2022/09/01 02:06:08;;;;;;;1.42;1.17;;;;;;;;;;4998122;28;20104;-63
2022/09/01 02:08:35;;;;;;;1.70;1.17;;;;;;;;;;4984599;28;20403;-68
2022/09/01 02:11:02;;;;;;;1.33;1.13;;;;;;;;;;5000769;28;20064;-62
2022/09/01 02:13:29;;;;;;;1.23;1.13;;;;;;;;;;4998491;28;20053;-62
2022/09/01 02:15:59;;;;;;;1.15;0.85;;;;;;;;;;4996258;28;20109;-62
2022/09/01 02:18:33;;;;;;;1.23;1.10;;;;;;;;;;4981044;28;20723;-63
2022/09/01 02:20:59;;;;;;;1.60;1.20;;;;;;;;;;4997695;28;20046;-62
2022/09/01 02:23:25;;;;;;;1.35;1.02;;;;;;;;;;4993633;28;20065;-63
2022/09/01 02:25:54;;;;;;;3.28;1.10;;;;;;;;;;4997791;28;20039;-64
2022/09/01 02:28:21;;;;;;;1.13;1.02;;;;;;;;;;5000074;28;21271;-63
2022/09/01 02:30:50;;;;;;;2.13;1.15;;;;;;;;;;4996861;28;20069;-61
2022/09/01 02:33:19;;;;;;;2.45;1.15;;;;;;;;;;4994905;28;20045;-64
2022/09/01 02:35:54;;;;;;;2.13;1.02;;;;;;;;;;4998706;28;20073;-63
2022/09/01 02:38:22;;;;;;;2.75;1.35;;;;;;;;;;4997219;28;20082;-62
2022/09/01 02:40:48;;;;;;;1.17;1.00;;;;;;;;;;4997882;28;20058;-62
2022/09/01 02:43:19;;;;;;;2.08;1.10;;;;;;;;;;5000028;28;20049;-63
2022/09/01 02:45:54;;;;;;;1.77;1.17;;;;;;;;;;4994314;28;20042;-62
2022/09/01 02:48:23;;;;;;;2.00;1.08;;;;;;;;;;5000254;28;20149;-63
2022/09/01 02:50:49;;;;;;;3.03;0.90;;;;;;;;;;4990019;28;20432;-62
2022/09/01 02:53:15;;;;;;;1.55;0.90;;;;;;;;;;4998405;28;20055;-62
2022/09/01 02:55:41;;;;;;;1.98;1.05;;;;;;;;;;5002406;28;20049;-62
2022/09/01 02:58:10;;;;;;;2.17;1.08;;;;;;;;;;5000832;28;20265;-62
2022/09/01 03:00:38;;;;;;;1.27;1.17;;;;;;;;;;4987169;28;20045;-62
2022/09/01 03:03:05;;;;;;;1.13;1.02;;;;;;;;;;4998438;28;20093;-62
2022/09/01 03:05:33;;;;;;;1.23;1.13;;;;;;;;;;5000706;28;20459;-62
2022/09/01 03:08:03;;;;;;;6.35;1.13;;;;;;;;;;5001237;28;20101;-62
2022/09/01 03:10:34;;;;;;;3.15;1.38;;;;;;;;;;5001998;28;20096;-62
2022/09/01 03:13:08;;;;;;;3.42;2.20;;;;;;;;;;5000409;28;20065;-63
2022/09/01 03:15:35;;;;;;;2.03;1.33;;;;;;;;;;5000862;28;20050;-62
2022/09/01 03:18:02;;;;;;;5.40;1.20;;;;;;;;;;5003918;28;20038;-62
2022/09/01 03:20:30;;;;;;;2.45;1.20;;;;;;;;;;5002151;28;20142;-63
2022/09/01 03:22:56;;;;;;;2.10;1.10;;;;;;;;;;5001981;28;20125;-62
2022/09/01 03:25:24;;;;;;;3.05;1.00;;;;;;;;;;4998311;28;20050;-62
2022/09/01 03:27:51;;;;;;;3.65;1.30;;;;;;;;;;5002000;28;20481;-62
2022/09/01 03:30:17;;;;;;;1.58;1.08;;;;;;;;;;5001037;28;20046;-63
2022/09/01 03:32:43;;;;;;;2.90;1.30;;;;;;;;;;5004652;28;20084;-64
2022/09/01 03:35:10;;;;;;;122.47;72.53;;;;;;;;;;5001471;28;20058;-63
2022/09/01 03:37:36;;;;;;;31.38;14.20;;;;;;;;;;5002887;28;20056;-62
2022/09/01 03:40:05;;;;;;;2.88;1.77;;;;;;;;;;5001955;28;20128;-64
2022/09/01 03:42:31;;;;;;;1.70;1.38;;;;;;;;;;5001302;28;20073;-64
2022/09/01 03:44:57;;;;;;;2.08;1.45;;;;;;;;;;5000816;28;20112;-63
2022/09/01 03:47:23;;;;;;;1.33;0.98;;;;;;;;;;5002771;28;20054;-63
2022/09/01 03:49:49;;;;;;;6.72;1.67;;;;;;;;;;5004727;28;20057;-62
2022/09/01 03:52:16;;;;;;;1.60;1.13;;;;;;;;;;5003033;28;20041;-62
2022/09/01 03:54:42;;;;;;;3.97;1.30;;;;;;;;;;5004856;28;20405;-62
2022/09/01 03:57:09;;;;;;;1.83;1.00;;;;;;;;;;4988086;28;20069;-61
2022/09/01 03:59:36;;;;;;;2.45;1.20;;;;;;;;;;4989308;28;20061;-62
2022/09/01 04:02:02;;;;;;;3.13;1.30;;;;;;;;;;4994988;28;20047;-63
2022/09/01 04:04:31;;;;;;;2.97;1.30;;;;;;;;;;4998423;28;20046;-63
2022/09/01 04:06:58;;;;;;;4.18;1.50;;;;;;;;;;4969784;28;20061;-63
2022/09/01 04:09:24;;;;;;;2.53;1.15;;;;;;;;;;5002003;28;20038;-63
2022/09/01 04:11:50;;;;;;;2.25;1.38;;;;;;;;;;4999881;28;20053;-63
2022/09/01 04:14:16;;;;;;;2.88;1.25;;;;;;;;;;4998280;28;20125;-64
2022/09/01 04:19:29;;;;;;;5.20;1.58;;;;;;;;;;5001363;28;20057;-65
2022/09/01 04:21:58;;;;;;;3.30;1.50;;;;;;;;;;5001131;28;20056;-62
2022/09/01 04:24:26;;;;;;;2.55;1.45;;;;;;;;;;5002505;28;20050;-63
2022/09/01 04:26:53;;;;;;;3.50;1.20;;;;;;;;;;5003805;28;20049;-64
2022/09/01 04:29:26;;;;;;;3.08;1.77;;;;;;;;;;5001257;28;20404;-63
2022/09/01 04:31:52;;;;;;;5.03;2.00;;;;;;;;;;5004081;28;20062;-63
2022/09/01 04:34:21;;;;;;;3.20;1.80;;;;;;;;;;4998582;28;20519;-64
2022/09/01 04:36:47;;;;;;;5.50;1.60;;;;;;;;;;5001669;28;20376;-64
2022/09/01 04:39:13;;;;;;;1.65;1.52;;;;;;;;;;4998274;28;20045;-64
2022/09/01 04:41:48;;;;;;;2.20;1.30;;;;;;;;;;5001640;28;20022;-63
2022/09/01 04:44:17;;;;;;;2.00;1.33;;;;;;;;;;4999518;28;20056;-67
2022/09/01 04:46:49;;;;;;;3.65;1.60;;;;;;;;;;5004022;28;20400;-68
2022/09/01 04:49:21;;;;;;;4.40;1.90;;;;;;;;;;4997589;28;20088;-68
2022/09/01 04:51:50;;;;;;;2.83;1.33;;;;;;;;;;5002968;28;20095;-62
2022/09/01 04:54:16;;;;;;;1.52;1.30;;;;;;;;;;4997648;28;20037;-63
2022/09/01 04:56:45;;;;;;;2.80;1.50;;;;;;;;;;5002696;28;20034;-63
2022/09/01 04:59:12;;;;;;;2.17;1.40;;;;;;;;;;5001119;28;20640;-63
2022/09/01 05:01:42;;;;;;;2.15;1.42;;;;;;;;;;4985901;28;20113;-65
2022/09/01 05:04:26;;;;;;;2.70;1.30;;;;;;;;;;4985370;28;20479;-63
2022/09/01 05:06:58;;;;;;;3.25;1.60;;;;;;;;;;5005929;28;20898;-63
2022/09/01 05:09:24;;;;;;;3.90;1.70;;;;;;;;;;5001232;28;20507;-63
2022/09/01 05:11:51;;;;;;;4.93;1.75;;;;;;;;;;4999712;28;20031;-64
2022/09/01 05:14:18;;;;;;;3.45;2.10;;;;;;;;;;5000114;28;20400;-64
2022/09/01 05:16:44;;;;;;;4.88;1.42;;;;;;;;;;5000707;28;20046;-63
2022/09/01 05:19:13;;;;;;;4.65;1.60;;;;;;;;;;5000862;28;20081;-63
2022/09/01 05:21:46;;;;;;;3.33;1.50;;;;;;;;;;5001584;28;20181;-63
2022/09/01 05:24:15;;;;;;;5.63;1.67;;;;;;;;;;5000075;28;20029;-66
2022/09/01 05:26:41;;;;;;;2.08;1.55;;;;;;;;;;4982179;28;20038;-65
2022/09/01 05:29:12;;;;;;;3.40;1.95;;;;;;;;;;5000653;28;20058;-65
2022/09/01 05:31:39;;;;;;;5.30;2.78;;;;;;;;;;5002604;28;20052;-63
2022/09/01 05:34:08;;;;;;;2.13;1.50;;;;;;;;;;5000775;28;20053;-64
2022/09/01 05:36:35;;;;;;;3.45;2.00;;;;;;;;;;4981049;28;20050;-64
2022/09/01 05:39:03;;;;;;;2.45;1.52;;;;;;;;;;5003487;28;20395;-63
2022/09/01 05:41:29;;;;;;;2.67;2.03;;;;;;;;;;4998756;28;20045;-63
2022/09/01 05:43:54;;;;;;;5.35;1.83;;;;;;;;;;4985683;28;20409;-63
2022/09/01 05:46:25;;;;;;;2.47;1.50;;;;;;;;;;4993726;28;20058;-62
2022/09/01 05:48:52;;;;;;;3.25;1.63;;;;;;;;;;4999332;28;20045;-65
2022/09/01 05:51:25;;;;;;;3.72;1.70;;;;;;;;;;5004722;28;20050;-64
2022/09/01 05:53:57;;;;;;;1.55;1.27;;;;;;;;;;5001304;28;20034;-64
2022/09/01 05:56:25;;;;;;;2.70;1.75;;;;;;;;;;4983231;28;20045;-63
2022/09/01 05:58:51;;;;;;;1.83;1.58;;;;;;;;;;5001355;28;20069;-63
2022/09/01 06:01:21;;;;;;;3.33;1.58;;;;;;;;;;4980490;28;20058;-64
2022/09/01 06:03:49;;;;;;;3.00;1.88;;;;;;;;;;5000153;28;20045;-64
2022/09/01 06:06:15;;;;;;;5.70;1.80;;;;;;;;;;4992448;28;20388;-64
2022/09/01 06:08:41;;;;;;;3.50;1.98;;;;;;;;;;5005260;28;20033;-64
2022/09/01 06:11:12;;;;;;;3.30;1.60;;;;;;;;;;5001782;28;20128;-64
2022/09/01 06:13:40;;;;;;;3.40;1.40;;;;;;;;;;4999062;28;20062;-64
2022/09/01 06:16:07;;;;;;;2.50;1.33;;;;;;;;;;4981329;28;20053;-63
2022/09/01 06:18:33;;;;;;;1.50;1.10;;;;;;;;;;5001079;28;20488;-63
2022/09/01 06:21:02;;;;;;;1.30;1.10;;;;;;;;;;5004501;28;20089;-63
2022/09/01 06:23:28;;;;;;;1.70;1.50;;;;;;;;;;5000956;28;20133;-63
2022/09/01 06:25:54;;;;;;;2.42;0.82;;;;;;;;;;4999393;28;20190;-63
2022/09/01 06:28:22;;;;;;;1.75;1.23;;;;;;;;;;5003807;28;20408;-63
2022/09/01 06:30:49;;;;;;;5.40;1.60;;;;;;;;;;5001989;28;20046;-61
2022/09/01 06:33:15;;;;;;;4.53;1.20;;;;;;;;;;5001734;28;20396;-61
2022/09/01 06:35:43;;;;;;;4.13;1.10;;;;;;;;;;5001773;28;20040;-61
2022/09/01 06:38:11;;;;;;;1.88;1.20;;;;;;;;;;4997926;28;20054;-62
2022/09/01 06:40:39;;;;;;;2.33;1.30;;;;;;;;;;5001594;28;20058;-62
2022/09/01 06:43:08;;;;;;;2.30;1.23;;;;;;;;;;5001376;28;20053;-62
2022/09/01 06:45:42;;;;;;;4.95;1.60;;;;;;;;;;5001841;28;20046;-61
2022/09/01 06:48:16;;;;;;;3.88;1.35;;;;;;;;;;5000012;28;20565;-63
2022/09/01 06:50:42;;;;;;;2.67;1.20;;;;;;;;;;5004034;28;20050;-61
2022/09/01 06:53:15;;;;;;;3.17;1.30;;;;;;;;;;4998623;28;20116;-61
2022/09/01 06:55:42;;;;;;;1.52;1.08;;;;;;;;;;5002578;28;20061;-61
2022/09/01 06:58:12;;;;;;;2.55;1.27;;;;;;;;;;4998113;28;20052;-62
2022/09/01 07:00:41;;;;;;;1.83;1.23;;;;;;;;;;5004425;28;20120;-62
2022/09/01 07:03:13;;;;;;;2.80;1.23;;;;;;;;;;5003981;28;20160;-62
2022/09/01 07:05:41;;;;;;;2.00;1.10;;;;;;;;;;5003480;28;20042;-61
2022/09/01 07:08:09;;;;;;;1.50;1.10;;;;;;;;;;5001045;28;20049;-61
2022/09/01 07:10:43;;;;;;;3.00;1.23;;;;;;;;;;5002299;28;20168;-62
2022/09/01 07:13:11;;;;;;;3.63;1.40;;;;;;;;;;5000299;28;20416;-62
2022/09/01 07:15:38;;;;;;;2.25;1.13;;;;;;;;;;4996656;28;20057;-62
2022/09/01 07:18:05;;;;;;;2.15;1.25;;;;;;;;;;5004358;28;20022;-62
2022/09/01 07:20:38;;;;;;;3.58;1.13;;;;;;;;;;5001176;28;20050;-62
2022/09/01 07:23:04;;;;;;;1.77;1.20;;;;;;;;;;5004988;28;20078;-62
2022/09/01 07:25:30;;;;;;;1.88;1.02;;;;;;;;;;4984973;28;20951;-65
2022/09/01 07:27:59;;;;;;;2.65;1.20;;;;;;;;;;4997788;28;20046;-67
2022/09/01 07:30:24;;;;;;;5.60;1.70;;;;;;;;;;5001532;28;20492;-63
2022/09/01 07:32:50;;;;;;;3.88;1.27;;;;;;;;;;5003733;28;20064;-62
2022/09/01 07:35:20;;;;;;;3.22;1.40;;;;;;;;;;5001075;28;21143;-63
2022/09/01 07:37:47;;;;;;;4.35;1.27;;;;;;;;;;5002241;28;20053;-62
2022/09/01 07:40:17;;;;;;;5.93;1.50;;;;;;;;;;4998907;28;20072;-62
2022/09/01 07:42:43;;;;;;;3.15;1.40;;;;;;;;;;4981176;28;20132;-64
2022/09/01 07:45:10;;;;;;;3.10;1.30;;;;;;;;;;5003453;28;20129;-64
2022/09/01 07:47:36;;;;;;;2.85;1.20;;;;;;;;;;4997701;28;20054;-61
2022/09/01 07:50:07;;;;;;;3.92;1.20;;;;;;;;;;4986920;28;20054;-63
2022/09/01 07:52:42;;;;;;;5.70;1.27;;;;;;;;;;4996570;28;20054;-65
2022/09/01 07:55:12;;;;;;;4.72;1.58;;;;;;;;;;5004442;28;20504;-62
2022/09/01 07:57:41;;;;;;;2.45;1.50;;;;;;;;;;5001502;28;20057;-61
2022/09/01 08:00:10;;;;;;;1.50;1.15;;;;;;;;;;4999422;28;20190;-61
2022/09/01 08:02:37;;;;;;;2.08;1.40;;;;;;;;;;4997742;28;20122;-62
2022/09/01 08:05:08;;;;;;;3.15;1.50;;;;;;;;;;5004381;28;20141;-61
2022/09/01 08:07:35;;;;;;;2.17;1.65;;;;;;;;;;5001002;28;20054;-62
2022/09/01 08:10:01;;;;;;;2.05;1.17;;;;;;;;;;4997098;28;20113;-62
2022/09/01 08:12:26;;;;;;;2.45;1.40;;;;;;;;;;4998423;28;20038;-61
2022/09/01 08:14:52;;;;;;;1.83;1.30;;;;;;;;;;4997867;28;20099;-61
2022/09/01 08:17:18;;;;;;;4.22;1.02;;;;;;;;;;5001855;28;20141;-62
2022/09/01 08:19:45;;;;;;;2.72;1.20;;;;;;;;;;5000503;28;20458;-61
2022/09/01 08:22:11;;;;;;;4.18;1.20;;;;;;;;;;5002788;28;20400;-62
2022/09/01 08:24:36;;;;;;;1.63;1.10;;;;;;;;;;4994575;28;20050;-62
2022/09/01 08:27:03;;;;;;;1.40;1.30;;;;;;;;;;4997082;28;20038;-63
2022/09/01 08:29:28;;;;;;;2.55;1.30;;;;;;;;;;5004927;28;20084;-61
2022/09/01 08:31:54;;;;;;;3.10;1.30;;;;;;;;;;4998980;28;20462;-62
2022/09/01 08:34:19;;;;;;;4.18;1.50;;;;;;;;;;5000085;28;20610;-60
2022/09/01 08:36:45;;;;;;;2.05;1.30;;;;;;;;;;5000623;28;20038;-62
2022/09/01 08:39:10;;;;;;;4.15;1.38;;;;;;;;;;5003450;28;20026;-63
2022/09/01 08:41:43;;;;;;;1.38;1.10;;;;;;;;;;5000929;28;20041;-63
2022/09/01 08:44:25;;;;;;;1.42;1.30;;;;;;;;;;5001339;28;20054;-63
2022/09/01 08:46:58;;;;;;;2.03;1.35;;;;;;;;;;4997836;28;20042;-63
2022/09/01 08:49:25;;;;;;;3.78;1.23;;;;;;;;;;5002426;28;20089;-62
2022/09/01 08:52:05;;;;;;;2.60;1.30;;;;;;;;;;4982400;28;20136;-61
2022/09/01 08:54:36;;;;;;;2.03;1.38;;;;;;;;;;5005348;28;20057;-62
2022/09/01 08:57:09;;;;;;;2.00;1.30;;;;;;;;;;5000716;28;20057;-62
2022/09/01 08:59:35;;;;;;;3.75;1.40;;;;;;;;;;4996275;28;20181;-64
2022/09/01 09:02:19;;;;;;;2.85;1.52;;;;;;;;;;4997962;28;20510;-64
2022/09/01 09:05:05;;;;;;;2.35;1.40;;;;;;;;;;5001032;28;20046;-63
2022/09/01 09:08:20;;;;;;;8.70;2.45;;;;;;;;;;4999680;28;20052;-63
2022/09/01 09:10:51;;;;;;;6.43;1.48;;;;;;;;;;4972597;28;20042;-63
2022/09/01 09:13:38;;;;;;;5.40;1.60;;;;;;;;;;4999689;28;20679;-63
2022/09/01 09:16:46;;;;;;;2.75;1.30;;;;;;;;;;4996680;28;20057;-64
2022/09/01 09:19:25;;;;;;;5.85;1.30;;;;;;;;;;5000607;28;20081;-64
2022/09/01 09:21:53;;;;;;;7.93;1.50;;;;;;;;;;5001944;28;20057;-63
2022/09/01 09:24:46;;;;;;;4.15;1.23;;;;;;;;;;5000069;28;20051;-64
2022/09/01 09:27:34;;;;;;;2.22;1.38;;;;;;;;;;4998244;28;20364;-64
2022/09/01 09:30:07;;;;;;;3.15;1.38;;;;;;;;;;4999285;28;20037;-63
2022/09/01 09:32:50;;;;;;;2.15;1.02;;;;;;;;;;4999476;28;20057;-63
2022/09/01 09:35:32;;;;;;;8.70;1.63;;;;;;;;;;5000730;28;20049;-63
2022/09/01 09:38:21;;;;;;;3.85;1.40;;;;;;;;;;4997391;28;20064;-63
2022/09/01 09:41:14;;;;;;;6.28;1.50;;;;;;;;;;5001857;28;20046;-62
2022/09/01 09:43:57;;;;;;;3.42;1.40;;;;;;;;;;4998174;28;20617;-62
2022/09/01 09:46:33;;;;;;;6.63;1.73;;;;;;;;;;5003459;28;20045;-62
2022/09/01 09:49:23;;;;;;;2.83;1.50;;;;;;;;;;5004790;28;21021;-62
2022/09/01 09:52:08;;;;;;;8.95;1.77;;;;;;;;;;4996896;28;20074;-62
2022/09/01 09:54:36;;;;;;;4.00;1.67;;;;;;;;;;4987827;28;20064;-62
2022/09/01 09:57:16;;;;;;;4.88;1.40;;;;;;;;;;4993297;28;20038;-61
2022/09/01 09:59:56;;;;;;;6.60;1.48;;;;;;;;;;5003942;28;20046;-63
2022/09/01 10:02:31;;;;;;;1.67;1.30;;;;;;;;;;5003247;28;20050;-63
2022/09/01 10:04:59;;;;;;;4.18;1.50;;;;;;;;;;4999166;28;20120;-62
2022/09/01 10:07:34;;;;;;;2.63;1.50;;;;;;;;;;4998257;28;20108;-62
2022/09/01 10:10:05;;;;;;;3.95;1.60;;;;;;;;;;4997958;28;20121;-65
2022/09/01 10:12:32;;;;;;;7.93;1.55;;;;;;;;;;5000501;28;20065;-62
2022/09/01 10:15:07;;;;;;;5.68;1.45;;;;;;;;;;4997533;28;20408;-63
2022/09/01 10:17:41;;;;;;;5.03;1.60;;;;;;;;;;4999227;28;20466;-62
2022/09/01 10:20:07;;;;;;;2.00;1.20;;;;;;;;;;4999386;28;20378;-63
2022/09/01 10:22:35;;;;;;;5.38;1.50;;;;;;;;;;5005001;28;20160;-62
2022/09/01 10:25:02;;;;;;;3.42;1.77;;;;;;;;;;5002070;28;20069;-62
2022/09/01 10:27:34;;;;;;;4.80;1.58;;;;;;;;;;5004033;28;20427;-62
2022/09/01 10:30:19;;;;;;;4.22;1.75;;;;;;;;;;5005663;28;20053;-62
2022/09/01 10:32:57;;;;;;;4.30;1.60;;;;;;;;;;5001192;28;21141;-62
2022/09/01 10:35:36;;;;;;;3.58;1.45;;;;;;;;;;5000165;28;20046;-62
2022/09/01 10:38:05;;;;;;;4.28;1.63;;;;;;;;;;4998600;28;20050;-62
2022/09/01 10:40:40;;;;;;;3.33;1.42;;;;;;;;;;4998826;28;20777;-62
2022/09/01 10:43:35;;;;;;;1.75;1.38;;;;;;;;;;4999752;28;20046;-62
2022/09/01 10:46:27;;;;;;;5.57;1.40;;;;;;;;;;4993337;28;20187;-62
2022/09/01 10:48:56;;;;;;;2.28;1.42;;;;;;;;;;4981981;28;20050;-62
2022/09/01 10:51:21;;;;;;;3.92;1.55;;;;;;;;;;4991006;28;20213;-61
2022/09/01 10:53:54;;;;;;;4.40;1.52;;;;;;;;;;4993502;28;20469;-61
2022/09/01 10:56:34;;;;;;;3.72;1.83;;;;;;;;;;5002384;28;20053;-61
2022/09/01 10:59:21;;;;;;;4.68;1.55;;;;;;;;;;4996866;28;20058;-61
2022/09/01 11:01:47;;;;;;;1.92;1.38;;;;;;;;;;4992769;28;20049;-61
2022/09/01 11:04:13;;;;;;;2.80;1.70;;;;;;;;;;5004069;28;20046;-61
2022/09/01 11:06:41;;;;;;;6.85;1.50;;;;;;;;;;4994260;28;20091;-61
2022/09/01 11:09:32;;;;;;;3.25;1.33;;;;;;;;;;4997651;28;20452;-61
2022/09/01 11:12:28;;;;;;;4.60;1.27;;;;;;;;;;5001879;28;20061;-61
2022/09/01 11:14:58;;;;;;;3.00;1.30;;;;;;;;;;4995621;28;20050;-61
2022/09/01 11:17:26;;;;;;;1.67;1.23;;;;;;;;;;4997455;28;20050;-62
2022/09/01 11:20:10;;;;;;;4.20;1.40;;;;;;;;;;4996836;28;20058;-61
2022/09/01 11:22:57;;;;;;;1.90;1.35;;;;;;;;;;4997818;28;20057;-61
2022/09/01 11:25:36;;;;;;;1.63;1.13;;;;;;;;;;4999298;28;20077;-64
2022/09/01 11:28:14;;;;;;;3.17;1.35;;;;;;;;;;4999444;28;20489;-62
2022/09/01 11:31:00;;;;;;;3.42;1.40;;;;;;;;;;4999849;28;20385;-61
2022/09/01 11:33:50;;;;;;;4.35;1.33;;;;;;;;;;5005835;28;20050;-62
2022/09/01 11:36:36;;;;;;;1.98;1.30;;;;;;;;;;5002024;28;20046;-61
2022/09/01 11:39:40;;;;;;;4.70;1.25;;;;;;;;;;5003320;28;20122;-61
2022/09/01 11:42:17;;;;;;;3.28;1.25;;;;;;;;;;4999535;28;20053;-61
2022/09/01 11:44:48;;;;;;;3.83;1.10;;;;;;;;;;5000903;28;20053;-61
2022/09/01 11:47:25;;;;;;;2.38;1.55;;;;;;;;;;5002999;28;20055;-62
2022/09/01 11:49:52;;;;;;;2.03;1.30;;;;;;;;;;5006308;28;20046;-61
2022/09/01 11:52:20;;;;;;;6.38;1.70;;;;;;;;;;5000181;28;20042;-61
2022/09/01 11:54:45;;;;;;;3.65;1.35;;;;;;;;;;4989361;28;20373;-62
2022/09/01 11:57:23;;;;;;;2.72;1.38;;;;;;;;;;5003604;28;20065;-61
2022/09/01 11:59:49;;;;;;;4.20;1.65;;;;;;;;;;5008405;28;20386;-61
2022/09/01 12:02:19;;;;;;;2.42;1.35;;;;;;;;;;4998516;28;20038;-63
2022/09/01 12:04:45;;;;;;;1.63;1.10;;;;;;;;;;5005871;28;20042;-61
2022/09/01 12:07:22;;;;;;;2.13;1.30;;;;;;;;;;4999330;28;20042;-62
2022/09/01 12:09:48;;;;;;;3.63;1.38;;;;;;;;;;4994784;28;20389;-61
2022/09/01 12:12:33;;;;;;;11.82;1.55;;;;;;;;;;5004352;28;20126;-61
2022/09/01 12:15:03;;;;;;;4.82;1.60;;;;;;;;;;5006058;28;20051;-62
2022/09/01 12:17:29;;;;;;;3.03;1.13;;;;;;;;;;4998826;28;20057;-61
2022/09/01 12:19:55;;;;;;;4.68;1.40;;;;;;;;;;5001121;28;20500;-61
2022/09/01 12:22:21;;;;;;;7.95;1.30;;;;;;;;;;5003964;28;20117;-61
2022/09/01 12:24:52;;;;;;;2.83;1.13;;;;;;;;;;5002227;28;20049;-61
2022/09/01 12:27:22;;;;;;;3.28;1.35;;;;;;;;;;5003041;28;20061;-61
2022/09/01 12:29:48;;;;;;;4.00;1.30;;;;;;;;;;5003842;28;20060;-61
2022/09/01 12:32:14;;;;;;;2.05;1.55;;;;;;;;;;5004560;28;20046;-61
2022/09/01 12:35:03;;;;;;;1.55;1.45;;;;;;;;;;5002090;28;20106;-61
2022/09/01 12:37:29;;;;;;;1.90;1.25;;;;;;;;;;5000613;28;20042;-62
2022/09/01 12:39:57;;;;;;;2.53;1.35;;;;;;;;;;4995036;28;20037;-61
2022/09/01 12:42:30;;;;;;;1.88;1.40;;;;;;;;;;4998914;28;20157;-63
2022/09/01 12:45:01;;;;;;;3.42;1.60;;;;;;;;;;5003963;28;20049;-62
2022/09/01 12:47:32;;;;;;;4.22;1.30;;;;;;;;;;4997856;28;20050;-62
2022/09/01 12:50:17;;;;;;;3.33;1.50;;;;;;;;;;5005246;28;20044;-62
2022/09/01 12:52:54;;;;;;;1.70;1.30;;;;;;;;;;4995887;28;20073;-62
2022/09/01 12:55:24;;;;;;;1.98;1.40;;;;;;;;;;4994795;28;20049;-62
2022/09/01 12:57:55;;;;;;;2.45;1.50;;;;;;;;;;5001154;28;20055;-63
2022/09/01 13:00:28;;;;;;;1.92;1.35;;;;;;;;;;5001031;28;20127;-62
2022/09/01 13:02:53;;;;;;;4.65;1.45;;;;;;;;;;4978215;28;20507;-62
2022/09/01 13:05:30;;;;;;;4.25;1.40;;;;;;;;;;5001121;28;20050;-60
2022/09/01 13:08:07;;;;;;;8.85;1.15;;;;;;;;;;4999276;28;20069;-62
2022/09/01 13:10:46;;;;;;;2.53;1.10;;;;;;;;;;4996533;28;20076;-61
2022/09/01 13:13:13;;;;;;;3.53;1.30;;;;;;;;;;4997784;28;20042;-61
2022/09/01 13:15:42;;;;;;;1.60;1.30;;;;;;;;;;4997513;28;20048;-60
2022/09/01 13:18:08;;;;;;;3.28;1.30;;;;;;;;;;4996542;28;20053;-60
2022/09/01 13:20:34;;;;;;;4.30;1.30;;;;;;;;;;4992658;28;20716;-62
2022/09/01 13:23:01;;;;;;;2.92;1.20;;;;;;;;;;4999241;28;20041;-62
2022/09/01 13:25:26;;;;;;;4.10;1.27;;;;;;;;;;4999865;28;20034;-63
2022/09/01 13:27:53;;;;;;;4.45;1.40;;;;;;;;;;5003209;28;20054;-64
2022/09/01 13:30:27;;;;;;;6.53;1.20;;;;;;;;;;4999878;28;20109;-63
2022/09/01 13:32:52;;;;;;;4.10;1.50;;;;;;;;;;5001076;28;20392;-62
2022/09/01 13:35:20;;;;;;;3.90;1.27;;;;;;;;;;4999509;28;20046;-61
2022/09/01 13:37:46;;;;;;;2.47;1.30;;;;;;;;;;5000217;28;20041;-61
2022/09/01 13:40:15;;;;;;;3.83;1.40;;;;;;;;;;4999564;28;20141;-61
2022/09/01 13:42:52;;;;;;;6.65;1.30;;;;;;;;;;5001262;28;20038;-61
2022/09/01 13:45:19;;;;;;;1.50;1.27;;;;;;;;;;4986016;28;20557;-61
2022/09/01 13:47:48;;;;;;;1.67;1.20;;;;;;;;;;4997429;28;20051;-62
2022/09/01 13:50:16;;;;;;;3.75;1.50;;;;;;;;;;4997466;28;20061;-60
2022/09/01 13:52:46;;;;;;;3.80;1.33;;;;;;;;;;4997572;28;20045;-60
2022/09/01 13:55:19;;;;;;;1.33;1.17;;;;;;;;;;5000488;28;20136;-60
2022/09/01 13:57:44;;;;;;;1.33;1.10;;;;;;;;;;4998991;28;20038;-60
2022/09/01 14:00:14;;;;;;;3.97;1.65;;;;;;;;;;5001037;28;20065;-62
2022/09/01 14:02:41;;;;;;;2.35;1.45;;;;;;;;;;4997920;28;20092;-59
2022/09/01 14:05:08;;;;;;;2.67;1.27;;;;;;;;;;4996366;28;20077;-61
2022/09/01 14:07:33;;;;;;;1.30;1.20;;;;;;;;;;5000706;28;20053;-61
2022/09/01 14:09:59;;;;;;;1.73;1.20;;;;;;;;;;5002600;28;20054;-60
2022/09/01 14:12:24;;;;;;;2.33;1.13;;;;;;;;;;4996846;28;20049;-60
2022/09/01 14:14:50;;;;;;;5.45;1.30;;;;;;;;;;5001059;28;20046;-60
2022/09/01 14:17:16;;;;;;;5.93;1.50;;;;;;;;;;4991049;28;20181;-60
2022/09/01 14:19:41;;;;;;;2.95;1.13;;;;;;;;;;5000036;28;20085;-60
2022/09/01 14:22:07;;;;;;;2.60;1.35;;;;;;;;;;4976501;28;20642;-61
2022/09/01 14:24:35;;;;;;;3.33;1.30;;;;;;;;;;4993085;28;20053;-61
2022/09/01 14:27:01;;;;;;;1.75;1.33;;;;;;;;;;4990791;28;20057;-60
2022/09/01 14:29:28;;;;;;;4.82;1.67;;;;;;;;;;4993681;28;20073;-60
2022/09/01 14:31:55;;;;;;;2.10;1.30;;;;;;;;;;4995147;28;20034;-60
2022/09/01 14:34:23;;;;;;;1.90;1.23;;;;;;;;;;4997338;28;20049;-61
2022/09/01 14:36:49;;;;;;;2.50;1.30;;;;;;;;;;4998758;28;20558;-60
2022/09/01 14:39:15;;;;;;;1.58;1.10;;;;;;;;;;5000591;28;20455;-59
2022/09/01 14:41:40;;;;;;;2.63;1.23;;;;;;;;;;4997050;28;20042;-61
2022/09/01 14:44:05;;;;;;;1.60;1.17;;;;;;;;;;4996126;28;20049;-60
2022/09/01 14:46:33;;;;;;;1.60;1.40;;;;;;;;;;4997655;28;20057;-60
2022/09/01 14:48:59;;;;;;;1.75;1.20;;;;;;;;;;4997304;28;20647;-61
2022/09/01 14:51:30;;;;;;;3.42;1.20;;;;;;;;;;4999045;28;20120;-60
2022/09/01 14:53:55;;;;;;;1.83;1.40;;;;;;;;;;4997967;28;20480;-61
2022/09/01 14:56:22;;;;;;;3.25;1.30;;;;;;;;;;4996905;28;20056;-61
2022/09/01 14:58:49;;;;;;;1.38;1.15;;;;;;;;;;4997283;28;20107;-62
2022/09/01 15:01:23;;;;;;;2.60;1.17;;;;;;;;;;4996403;28;20053;-60
2022/09/01 15:03:49;;;;;;;1.70;1.02;;;;;;;;;;5002522;28;20050;-61
2022/09/01 15:06:19;;;;;;;4.43;1.30;;;;;;;;;;5002890;28;20054;-62
2022/09/01 15:08:46;;;;;;;1.50;1.40;;;;;;;;;;5002430;28;20057;-59